sensor_id;sensor_type;location;lat;lon;timestamp;temperature;humidity
41630;DHT22;27322;49.488;8.480;2023-12-20T00:01:45;6.80;99.90
41630;DHT22;27322;49.488;8.480;2023-12-20T00:04:11;6.80;99.90
41630;DHT22;27322;49.488;8.480;2023-12-20T00:06:36;6.80;99.90
41630;DHT22;27322;49.488;8.480;2023-12-20T00:09:02;6.80;99.90
41630;DHT22;27322;49.488;8.480;2023-12-20T00:11:28;6.80;99.90
41630;DHT22;27322;49.488;8.480;2023-12-20T00:13:53;6.80;99.90
41630;DHT22;27322;49.488;8.480;2023-12-20T00:16:19;6.80;99.90
41630;DHT22;27322;49.488;8.480;2023-12-20T00:18:44;6.80;99.90
41630;DHT22;27322;49.488;8.480;2023-12-20T00:21:10;6.80;99.90
41630;DHT22;27322;49.488;8.480;2023-12-20T00:23:35;6.80;99.90
41630;DHT22;27322;49.488;8.480;2023-12-20T00:26:01;6.80;99.90
41630;DHT22;27322;49.488;8.480;2023-12-20T00:28:27;6.80;99.90
41630;DHT22;27322;49.488;8.480;2023-12-20T00:30:52;6.80;99.90
41630;DHT22;27322;49.488;8.480;2023-12-20T00:33:20;6.80;99.90
41630;DHT22;27322;49.488;8.480;2023-12-20T00:35:45;6.80;99.90
41630;DHT22;27322;49.488;8.480;2023-12-20T00:38:11;6.80;99.90
41630;DHT22;27322;49.488;8.480;2023-12-20T00:40:37;6.80;99.90
41630;DHT22;27322;49.488;8.480;2023-12-20T00:43:03;6.80;99.90
41630;DHT22;27322;49.488;8.480;2023-12-20T00:45:28;6.80;99.90
41630;DHT22;27322;49.488;8.480;2023-12-20T00:47:54;6.80;99.90
41630;DHT22;27322;49.488;8.480;2023-12-20T00:50:19;6.90;99.90
41630;DHT22;27322;49.488;8.480;2023-12-20T00:52:47;6.80;99.90
41630;DHT22;27322;49.488;8.480;2023-12-20T00:55:13;6.80;99.90
41630;DHT22;27322;49.488;8.480;2023-12-20T00:57:39;6.80;99.90
41630;DHT22;27322;49.488;8.480;2023-12-20T01:00:05;6.90;99.90
41630;DHT22;27322;49.488;8.480;2023-12-20T01:02:31;6.90;99.90
41630;DHT22;27322;49.488;8.480;2023-12-20T01:04:56;6.90;99.90
41630;DHT22;27322;49.488;8.480;2023-12-20T01:07:22;6.80;99.90
41630;DHT22;27322;49.488;8.480;2023-12-20T01:09:47;6.90;99.90
41630;DHT22;27322;49.488;8.480;2023-12-20T01:12:13;6.80;99.90
41630;DHT22;27322;49.488;8.480;2023-12-20T01:14:39;6.80;99.90
41630;DHT22;27322;49.488;8.480;2023-12-20T01:17:05;6.90;99.90
41630;DHT22;27322;49.488;8.480;2023-12-20T01:19:30;6.90;99.90
41630;DHT22;27322;49.488;8.480;2023-12-20T01:21:56;6.80;99.90
41630;DHT22;27322;49.488;8.480;2023-12-20T01:24:22;6.90;99.90
41630;DHT22;27322;49.488;8.480;2023-12-20T01:26:47;6.80;99.90
41630;DHT22;27322;49.488;8.480;2023-12-20T01:29:13;6.80;99.90
41630;DHT22;27322;49.488;8.480;2023-12-20T01:31:39;6.80;99.90
41630;DHT22;27322;49.488;8.480;2023-12-20T01:34:06;6.80;99.90
41630;DHT22;27322;49.488;8.480;2023-12-20T01:36:31;6.80;99.90
41630;DHT22;27322;49.488;8.480;2023-12-20T01:38:57;6.80;99.90
41630;DHT22;27322;49.488;8.480;2023-12-20T01:41:25;6.80;99.90
41630;DHT22;27322;49.488;8.480;2023-12-20T01:43:51;6.90;99.90
41630;DHT22;27322;49.488;8.480;2023-12-20T01:46:19;6.80;99.90
41630;DHT22;27322;49.488;8.480;2023-12-20T01:48:45;6.80;99.90
41630;DHT22;27322;49.488;8.480;2023-12-20T01:51:11;6.80;99.90
41630;DHT22;27322;49.488;8.480;2023-12-20T01:53:36;6.90;99.90
41630;DHT22;27322;49.488;8.480;2023-12-20T01:56:03;6.90;99.90
41630;DHT22;27322;49.488;8.480;2023-12-20T01:58:29;6.80;99.90
41630;DHT22;27322;49.488;8.480;2023-12-20T02:00:55;6.80;99.90
41630;DHT22;27322;49.488;8.480;2023-12-20T02:03:21;6.80;99.90
41630;DHT22;27322;49.488;8.480;2023-12-20T02:05:47;6.80;99.90
41630;DHT22;27322;49.488;8.480;2023-12-20T02:08:13;6.80;99.90
41630;DHT22;27322;49.488;8.480;2023-12-20T02:10:39;6.80;99.90
41630;DHT22;27322;49.488;8.480;2023-12-20T02:13:06;6.80;99.90
41630;DHT22;27322;49.488;8.480;2023-12-20T02:15:31;6.80;99.90
41630;DHT22;27322;49.488;8.480;2023-12-20T02:17:57;6.80;99.90
41630;DHT22;27322;49.488;8.480;2023-12-20T02:20:23;6.80;99.90
41630;DHT22;27322;49.488;8.480;2023-12-20T02:22:48;6.80;99.90
41630;DHT22;27322;49.488;8.480;2023-12-20T02:25:14;6.80;99.90
41630;DHT22;27322;49.488;8.480;2023-12-20T02:27:40;6.80;99.90
41630;DHT22;27322;49.488;8.480;2023-12-20T02:30:06;6.80;99.90
41630;DHT22;27322;49.488;8.480;2023-12-20T02:32:32;6.80;99.90
41630;DHT22;27322;49.488;8.480;2023-12-20T02:35:03;6.80;99.90
41630;DHT22;27322;49.488;8.480;2023-12-20T02:37:28;6.70;99.90
41630;DHT22;27322;49.488;8.480;2023-12-20T02:39:54;6.80;99.90
41630;DHT22;27322;49.488;8.480;2023-12-20T02:42:19;6.80;99.90
41630;DHT22;27322;49.488;8.480;2023-12-20T02:44:45;6.80;99.90
41630;DHT22;27322;49.488;8.480;2023-12-20T02:47:10;6.70;99.90
41630;DHT22;27322;49.488;8.480;2023-12-20T02:49:36;6.70;99.90
41630;DHT22;27322;49.488;8.480;2023-12-20T02:52:02;6.70;99.90
41630;DHT22;27322;49.488;8.480;2023-12-20T02:54:30;6.70;99.90
41630;DHT22;27322;49.488;8.480;2023-12-20T02:56:56;6.70;99.90
41630;DHT22;27322;49.488;8.480;2023-12-20T02:59:21;6.70;99.90
41630;DHT22;27322;49.488;8.480;2023-12-20T03:01:47;6.70;99.90
41630;DHT22;27322;49.488;8.480;2023-12-20T03:04:12;6.70;99.90
41630;DHT22;27322;49.488;8.480;2023-12-20T03:06:38;6.70;99.90
41630;DHT22;27322;49.488;8.480;2023-12-20T03:09:04;6.70;99.90
41630;DHT22;27322;49.488;8.480;2023-12-20T03:11:30;6.70;99.90
41630;DHT22;27322;49.488;8.480;2023-12-20T03:13:56;6.70;99.90
41630;DHT22;27322;49.488;8.480;2023-12-20T03:16:22;6.70;99.90
41630;DHT22;27322;49.488;8.480;2023-12-20T03:18:47;6.60;99.90
41630;DHT22;27322;49.488;8.480;2023-12-20T03:21:13;6.60;99.90
41630;DHT22;27322;49.488;8.480;2023-12-20T03:23:38;6.70;99.90
41630;DHT22;27322;49.488;8.480;2023-12-20T03:26:07;6.60;99.90
41630;DHT22;27322;49.488;8.480;2023-12-20T03:28:33;6.60;99.90
41630;DHT22;27322;49.488;8.480;2023-12-20T03:30:59;6.70;99.90
41630;DHT22;27322;49.488;8.480;2023-12-20T03:33:24;6.70;99.90
41630;DHT22;27322;49.488;8.480;2023-12-20T03:35:50;6.70;99.90
41630;DHT22;27322;49.488;8.480;2023-12-20T03:38:15;6.70;99.90
41630;DHT22;27322;49.488;8.480;2023-12-20T03:40:41;6.70;99.90
41630;DHT22;27322;49.488;8.480;2023-12-20T03:43:07;6.70;99.90
41630;DHT22;27322;49.488;8.480;2023-12-20T03:45:33;6.70;99.90
41630;DHT22;27322;49.488;8.480;2023-12-20T03:47:58;6.70;99.90
41630;DHT22;27322;49.488;8.480;2023-12-20T03:50:24;6.70;99.90
41630;DHT22;27322;49.488;8.480;2023-12-20T03:52:50;6.70;99.90
41630;DHT22;27322;49.488;8.480;2023-12-20T03:55:15;6.70;99.90
41630;DHT22;27322;49.488;8.480;2023-12-20T03:57:41;6.70;99.90
41630;DHT22;27322;49.488;8.480;2023-12-20T04:00:08;6.70;99.90
41630;DHT22;27322;49.488;8.480;2023-12-20T04:02:36;6.70;99.90
41630;DHT22;27322;49.488;8.480;2023-12-20T04:05:02;6.70;99.90
41630;DHT22;27322;49.488;8.480;2023-12-20T04:07:27;6.70;99.90
41630;DHT22;27322;49.488;8.480;2023-12-20T04:09:53;6.70;99.90
41630;DHT22;27322;49.488;8.480;2023-12-20T04:12:18;6.70;99.90
41630;DHT22;27322;49.488;8.480;2023-12-20T04:14:44;6.70;99.90
41630;DHT22;27322;49.488;8.480;2023-12-20T04:17:09;6.70;99.90
41630;DHT22;27322;49.488;8.480;2023-12-20T04:19:35;6.70;99.90
41630;DHT22;27322;49.488;8.480;2023-12-20T04:22:01;6.70;99.90
41630;DHT22;27322;49.488;8.480;2023-12-20T04:24:26;6.70;99.90
41630;DHT22;27322;49.488;8.480;2023-12-20T04:26:52;6.70;99.90
41630;DHT22;27322;49.488;8.480;2023-12-20T04:29:17;6.70;99.90
41630;DHT22;27322;49.488;8.480;2023-12-20T04:31:43;6.80;99.90
41630;DHT22;27322;49.488;8.480;2023-12-20T04:34:09;6.80;99.90
41630;DHT22;27322;49.488;8.480;2023-12-20T04:36:34;6.80;99.90
41630;DHT22;27322;49.488;8.480;2023-12-20T04:39:00;6.80;99.90
41630;DHT22;27322;49.488;8.480;2023-12-20T04:41:25;6.80;99.90
41630;DHT22;27322;49.488;8.480;2023-12-20T04:43:53;6.80;99.90
41630;DHT22;27322;49.488;8.480;2023-12-20T04:46:18;6.80;99.90
41630;DHT22;27322;49.488;8.480;2023-12-20T04:48:44;6.80;99.90
41630;DHT22;27322;49.488;8.480;2023-12-20T04:51:09;6.80;99.90
41630;DHT22;27322;49.488;8.480;2023-12-20T04:53:35;6.80;99.90
41630;DHT22;27322;49.488;8.480;2023-12-20T04:56:00;6.80;99.90
41630;DHT22;27322;49.488;8.480;2023-12-20T04:58:26;6.80;99.90
41630;DHT22;27322;49.488;8.480;2023-12-20T05:00:52;6.80;99.90
41630;DHT22;27322;49.488;8.480;2023-12-20T05:03:17;6.80;99.90
41630;DHT22;27322;49.488;8.480;2023-12-20T05:05:43;6.80;99.90
41630;DHT22;27322;49.488;8.480;2023-12-20T05:08:08;6.90;99.90
41630;DHT22;27322;49.488;8.480;2023-12-20T05:10:34;6.90;99.90
41630;DHT22;27322;49.488;8.480;2023-12-20T05:13:00;6.90;99.90
41630;DHT22;27322;49.488;8.480;2023-12-20T05:15:26;6.90;99.90
41630;DHT22;27322;49.488;8.480;2023-12-20T05:17:51;6.90;99.90
41630;DHT22;27322;49.488;8.480;2023-12-20T05:20:17;6.90;99.90
41630;DHT22;27322;49.488;8.480;2023-12-20T05:22:42;6.90;99.90
41630;DHT22;27322;49.488;8.480;2023-12-20T05:25:08;6.90;99.90
41630;DHT22;27322;49.488;8.480;2023-12-20T05:27:34;6.90;99.90
41630;DHT22;27322;49.488;8.480;2023-12-20T05:29:59;6.90;99.90
41630;DHT22;27322;49.488;8.480;2023-12-20T05:32:25;6.90;99.90
41630;DHT22;27322;49.488;8.480;2023-12-20T05:34:51;6.90;99.90
41630;DHT22;27322;49.488;8.480;2023-12-20T05:37:16;6.90;99.90
41630;DHT22;27322;49.488;8.480;2023-12-20T05:39:42;6.90;99.90
41630;DHT22;27322;49.488;8.480;2023-12-20T05:42:07;6.90;99.90
41630;DHT22;27322;49.488;8.480;2023-12-20T05:44:33;6.90;99.90
41630;DHT22;27322;49.488;8.480;2023-12-20T05:46:58;6.90;99.90
41630;DHT22;27322;49.488;8.480;2023-12-20T05:49:24;7.00;99.90
41630;DHT22;27322;49.488;8.480;2023-12-20T05:51:49;7.00;99.90
41630;DHT22;27322;49.488;8.480;2023-12-20T05:54:16;7.00;99.90
41630;DHT22;27322;49.488;8.480;2023-12-20T05:56:42;6.90;99.90
41630;DHT22;27322;49.488;8.480;2023-12-20T05:59:07;7.00;99.90
41630;DHT22;27322;49.488;8.480;2023-12-20T06:01:36;7.00;99.90
41630;DHT22;27322;49.488;8.480;2023-12-20T06:04:01;7.00;99.90
41630;DHT22;27322;49.488;8.480;2023-12-20T06:06:28;7.00;99.90
41630;DHT22;27322;49.488;8.480;2023-12-20T06:08:54;7.00;99.90
41630;DHT22;27322;49.488;8.480;2023-12-20T06:11:19;7.00;99.90
41630;DHT22;27322;49.488;8.480;2023-12-20T06:13:45;7.00;99.90
41630;DHT22;27322;49.488;8.480;2023-12-20T06:16:11;7.00;99.90
41630;DHT22;27322;49.488;8.480;2023-12-20T06:18:37;7.00;99.90
41630;DHT22;27322;49.488;8.480;2023-12-20T06:21:03;7.10;99.90
41630;DHT22;27322;49.488;8.480;2023-12-20T06:23:29;7.10;99.90
41630;DHT22;27322;49.488;8.480;2023-12-20T06:25:54;7.10;99.90
41630;DHT22;27322;49.488;8.480;2023-12-20T06:28:20;7.10;99.90
41630;DHT22;27322;49.488;8.480;2023-12-20T06:30:45;7.10;99.90
41630;DHT22;27322;49.488;8.480;2023-12-20T06:33:14;7.10;99.90
41630;DHT22;27322;49.488;8.480;2023-12-20T06:35:42;7.10;99.90
41630;DHT22;27322;49.488;8.480;2023-12-20T06:38:08;7.10;99.90
41630;DHT22;27322;49.488;8.480;2023-12-20T06:40:34;7.00;99.90
41630;DHT22;27322;49.488;8.480;2023-12-20T06:43:00;7.00;99.90
41630;DHT22;27322;49.488;8.480;2023-12-20T06:45:25;7.00;99.90
41630;DHT22;27322;49.488;8.480;2023-12-20T06:47:51;7.00;99.90
41630;DHT22;27322;49.488;8.480;2023-12-20T06:50:17;6.90;99.90
41630;DHT22;27322;49.488;8.480;2023-12-20T06:52:42;6.90;99.90
41630;DHT22;27322;49.488;8.480;2023-12-20T06:55:08;6.90;99.90
41630;DHT22;27322;49.488;8.480;2023-12-20T06:57:33;6.90;99.90
41630;DHT22;27322;49.488;8.480;2023-12-20T07:00:00;6.90;99.90
41630;DHT22;27322;49.488;8.480;2023-12-20T07:02:26;6.80;99.90
41630;DHT22;27322;49.488;8.480;2023-12-20T07:04:54;6.80;99.90
41630;DHT22;27322;49.488;8.480;2023-12-20T07:07:20;6.80;99.90
41630;DHT22;27322;49.488;8.480;2023-12-20T07:09:45;6.80;99.90
41630;DHT22;27322;49.488;8.480;2023-12-20T07:12:11;6.70;99.90
41630;DHT22;27322;49.488;8.480;2023-12-20T07:14:36;6.70;99.90
41630;DHT22;27322;49.488;8.480;2023-12-20T07:17:02;6.70;99.90
41630;DHT22;27322;49.488;8.480;2023-12-20T07:19:28;6.70;99.90
41630;DHT22;27322;49.488;8.480;2023-12-20T07:21:54;6.70;99.90
41630;DHT22;27322;49.488;8.480;2023-12-20T07:24:20;6.60;99.90
41630;DHT22;27322;49.488;8.480;2023-12-20T07:26:45;6.60;99.90
41630;DHT22;27322;49.488;8.480;2023-12-20T07:29:11;6.60;99.90
41630;DHT22;27322;49.488;8.480;2023-12-20T07:31:36;6.60;99.90
41630;DHT22;27322;49.488;8.480;2023-12-20T07:34:02;6.50;99.90
41630;DHT22;27322;49.488;8.480;2023-12-20T07:36:29;6.50;99.90
41630;DHT22;27322;49.488;8.480;2023-12-20T07:39:00;6.50;99.90
41630;DHT22;27322;49.488;8.480;2023-12-20T07:41:29;6.50;99.90
41630;DHT22;27322;49.488;8.480;2023-12-20T07:43:58;6.50;99.90
41630;DHT22;27322;49.488;8.480;2023-12-20T07:46:27;6.50;99.90
41630;DHT22;27322;49.488;8.480;2023-12-20T07:48:56;6.50;99.90
41630;DHT22;27322;49.488;8.480;2023-12-20T07:51:45;6.50;99.90
41630;DHT22;27322;49.488;8.480;2023-12-20T07:54:24;6.50;99.90
41630;DHT22;27322;49.488;8.480;2023-12-20T07:56:58;6.50;99.90
41630;DHT22;27322;49.488;8.480;2023-12-20T07:59:42;6.50;99.90
41630;DHT22;27322;49.488;8.480;2023-12-20T08:02:16;6.50;99.90
41630;DHT22;27322;49.488;8.480;2023-12-20T08:04:45;6.50;99.90
41630;DHT22;27322;49.488;8.480;2023-12-20T08:07:24;6.50;99.90
41630;DHT22;27322;49.488;8.480;2023-12-20T08:10:03;6.40;99.90
41630;DHT22;27322;49.488;8.480;2023-12-20T08:12:32;6.50;99.90
41630;DHT22;27322;49.488;8.480;2023-12-20T08:15:01;6.50;99.90
41630;DHT22;27322;49.488;8.480;2023-12-20T08:17:41;6.50;99.90
41630;DHT22;27322;49.488;8.480;2023-12-20T08:20:20;6.50;99.90
41630;DHT22;27322;49.488;8.480;2023-12-20T08:22:57;6.50;99.90
41630;DHT22;27322;49.488;8.480;2023-12-20T08:25:35;6.50;99.90
41630;DHT22;27322;49.488;8.480;2023-12-20T08:28:04;6.50;99.90
41630;DHT22;27322;49.488;8.480;2023-12-20T08:30:29;6.50;99.90
41630;DHT22;27322;49.488;8.480;2023-12-20T08:32:56;6.50;99.90
41630;DHT22;27322;49.488;8.480;2023-12-20T08:35:22;6.50;99.90
41630;DHT22;27322;49.488;8.480;2023-12-20T08:37:47;6.50;99.90
41630;DHT22;27322;49.488;8.480;2023-12-20T08:40:13;6.50;99.90
41630;DHT22;27322;49.488;8.480;2023-12-20T08:42:42;6.50;99.90
41630;DHT22;27322;49.488;8.480;2023-12-20T08:45:10;6.50;99.90
41630;DHT22;27322;49.488;8.480;2023-12-20T08:47:39;6.50;99.90
41630;DHT22;27322;49.488;8.480;2023-12-20T08:50:20;6.50;99.90
41630;DHT22;27322;49.488;8.480;2023-12-20T08:52:53;6.60;99.90
41630;DHT22;27322;49.488;8.480;2023-12-20T08:55:22;6.60;99.90
41630;DHT22;27322;49.488;8.480;2023-12-20T08:58:00;6.60;99.90
41630;DHT22;27322;49.488;8.480;2023-12-20T09:00:28;6.60;99.90
41630;DHT22;27322;49.488;8.480;2023-12-20T09:02:56;6.60;99.90
41630;DHT22;27322;49.488;8.480;2023-12-20T09:05:36;6.60;99.90
41630;DHT22;27322;49.488;8.480;2023-12-20T09:08:15;6.60;99.90
41630;DHT22;27322;49.488;8.480;2023-12-20T09:11:06;6.60;99.90
41630;DHT22;27322;49.488;8.480;2023-12-20T09:13:37;6.60;99.90
41630;DHT22;27322;49.488;8.480;2023-12-20T09:16:25;6.70;99.90
41630;DHT22;27322;49.488;8.480;2023-12-20T09:40:41;6.80;99.90
41630;DHT22;27322;49.488;8.480;2023-12-20T09:54:21;6.90;99.90
41630;DHT22;27322;49.488;8.480;2023-12-20T10:10:15;7.10;99.90
41630;DHT22;27322;49.488;8.480;2023-12-20T10:13:12;7.10;99.90
41630;DHT22;27322;49.488;8.480;2023-12-20T10:16:14;7.20;99.90
41630;DHT22;27322;49.488;8.480;2023-12-20T10:22:28;7.20;99.90
41630;DHT22;27322;49.488;8.480;2023-12-20T10:24:56;7.20;99.90
41630;DHT22;27322;49.488;8.480;2023-12-20T11:35:25;7.50;99.90
41630;DHT22;27322;49.488;8.480;2023-12-20T11:38:35;7.50;99.90
41630;DHT22;27322;49.488;8.480;2023-12-20T11:41:11;7.50;99.90
41630;DHT22;27322;49.488;8.480;2023-12-20T11:43:39;7.50;99.90
41630;DHT22;27322;49.488;8.480;2023-12-20T11:46:15;7.50;99.90
41630;DHT22;27322;49.488;8.480;2023-12-20T11:48:48;7.50;99.90
41630;DHT22;27322;49.488;8.480;2023-12-20T11:54:29;7.50;99.90
41630;DHT22;27322;49.488;8.480;2023-12-20T11:57:09;7.60;99.90
41630;DHT22;27322;49.488;8.480;2023-12-20T11:59:36;7.60;99.90
41630;DHT22;27322;49.488;8.480;2023-12-20T12:02:01;7.50;99.90
41630;DHT22;27322;49.488;8.480;2023-12-20T12:04:28;7.60;99.90
41630;DHT22;27322;49.488;8.480;2023-12-20T12:06:54;7.50;99.90
41630;DHT22;27322;49.488;8.480;2023-12-20T12:09:19;7.60;99.90
41630;DHT22;27322;49.488;8.480;2023-12-20T12:11:45;7.50;99.90
41630;DHT22;27322;49.488;8.480;2023-12-20T12:14:11;7.50;99.90
41630;DHT22;27322;49.488;8.480;2023-12-20T12:16:36;7.50;99.90
41630;DHT22;27322;49.488;8.480;2023-12-20T12:19:02;7.50;99.90
41630;DHT22;27322;49.488;8.480;2023-12-20T12:21:29;7.60;99.90
41630;DHT22;27322;49.488;8.480;2023-12-20T12:24:06;7.50;99.90
41630;DHT22;27322;49.488;8.480;2023-12-20T12:26:32;7.50;99.90
41630;DHT22;27322;49.488;8.480;2023-12-20T12:28:57;7.50;99.90
41630;DHT22;27322;49.488;8.480;2023-12-20T12:31:23;7.60;99.90
41630;DHT22;27322;49.488;8.480;2023-12-20T12:33:50;7.50;99.90
41630;DHT22;27322;49.488;8.480;2023-12-20T12:36:16;7.50;99.90
41630;DHT22;27322;49.488;8.480;2023-12-20T12:38:43;7.50;99.90
41630;DHT22;27322;49.488;8.480;2023-12-20T12:41:09;7.50;99.90
41630;DHT22;27322;49.488;8.480;2023-12-20T12:43:37;7.50;99.90
41630;DHT22;27322;49.488;8.480;2023-12-20T12:46:03;7.50;99.90
41630;DHT22;27322;49.488;8.480;2023-12-20T12:48:29;7.50;99.90
41630;DHT22;27322;49.488;8.480;2023-12-20T12:50:54;7.50;99.90
41630;DHT22;27322;49.488;8.480;2023-12-20T12:53:24;7.60;99.90
41630;DHT22;27322;49.488;8.480;2023-12-20T12:55:51;7.50;99.90
41630;DHT22;27322;49.488;8.480;2023-12-20T12:58:16;7.60;99.90
41630;DHT22;27322;49.488;8.480;2023-12-20T13:00:42;7.50;99.90
41630;DHT22;27322;49.488;8.480;2023-12-20T13:03:08;7.50;99.90
41630;DHT22;27322;49.488;8.480;2023-12-20T13:05:33;7.50;99.90
41630;DHT22;27322;49.488;8.480;2023-12-20T13:07:59;7.60;99.90
41630;DHT22;27322;49.488;8.480;2023-12-20T13:10:25;7.50;99.90
41630;DHT22;27322;49.488;8.480;2023-12-20T13:12:50;7.50;99.90
41630;DHT22;27322;49.488;8.480;2023-12-20T13:15:17;7.60;99.90
41630;DHT22;27322;49.488;8.480;2023-12-20T13:17:42;7.50;99.90
41630;DHT22;27322;49.488;8.480;2023-12-20T13:20:08;7.50;99.90
41630;DHT22;27322;49.488;8.480;2023-12-20T13:22:34;7.50;99.90
41630;DHT22;27322;49.488;8.480;2023-12-20T13:25:00;7.60;99.90
41630;DHT22;27322;49.488;8.480;2023-12-20T13:27:27;7.60;99.90
41630;DHT22;27322;49.488;8.480;2023-12-20T13:29:53;7.60;99.90
41630;DHT22;27322;49.488;8.480;2023-12-20T13:32:18;7.60;99.90
41630;DHT22;27322;49.488;8.480;2023-12-20T13:34:45;7.60;99.90
41630;DHT22;27322;49.488;8.480;2023-12-20T13:37:11;7.60;99.90
41630;DHT22;27322;49.488;8.480;2023-12-20T13:39:36;7.60;99.90
41630;DHT22;27322;49.488;8.480;2023-12-20T13:42:02;7.60;99.90
41630;DHT22;27322;49.488;8.480;2023-12-20T13:44:28;7.60;99.90
41630;DHT22;27322;49.488;8.480;2023-12-20T13:46:54;7.60;99.90
41630;DHT22;27322;49.488;8.480;2023-12-20T13:49:20;7.70;99.90
41630;DHT22;27322;49.488;8.480;2023-12-20T13:51:46;7.70;99.90
41630;DHT22;27322;49.488;8.480;2023-12-20T13:54:13;7.60;99.90
41630;DHT22;27322;49.488;8.480;2023-12-20T13:56:38;7.70;99.90
41630;DHT22;27322;49.488;8.480;2023-12-20T13:59:04;7.70;99.90
41630;DHT22;27322;49.488;8.480;2023-12-20T14:01:29;7.70;99.90
41630;DHT22;27322;49.488;8.480;2023-12-20T14:03:55;7.70;99.90
41630;DHT22;27322;49.488;8.480;2023-12-20T14:06:20;7.70;99.90
41630;DHT22;27322;49.488;8.480;2023-12-20T14:08:46;7.70;99.90
41630;DHT22;27322;49.488;8.480;2023-12-20T14:11:13;7.70;99.90
41630;DHT22;27322;49.488;8.480;2023-12-20T14:13:40;7.70;99.90
41630;DHT22;27322;49.488;8.480;2023-12-20T14:16:06;7.70;99.90
41630;DHT22;27322;49.488;8.480;2023-12-20T14:18:32;7.70;99.90
41630;DHT22;27322;49.488;8.480;2023-12-20T14:20:58;7.80;99.90
41630;DHT22;27322;49.488;8.480;2023-12-20T14:23:23;7.80;99.90
41630;DHT22;27322;49.488;8.480;2023-12-20T14:25:49;7.80;99.90
41630;DHT22;27322;49.488;8.480;2023-12-20T14:28:14;7.80;99.90
41630;DHT22;27322;49.488;8.480;2023-12-20T14:30:40;7.80;99.90
41630;DHT22;27322;49.488;8.480;2023-12-20T14:33:06;7.80;99.90
41630;DHT22;27322;49.488;8.480;2023-12-20T14:35:32;7.80;99.90
41630;DHT22;27322;49.488;8.480;2023-12-20T14:37:58;7.80;99.90
41630;DHT22;27322;49.488;8.480;2023-12-20T14:40:26;7.80;99.90
41630;DHT22;27322;49.488;8.480;2023-12-20T14:42:52;7.80;99.90
41630;DHT22;27322;49.488;8.480;2023-12-20T14:45:17;7.90;99.90
41630;DHT22;27322;49.488;8.480;2023-12-20T14:47:43;7.80;99.90
41630;DHT22;27322;49.488;8.480;2023-12-20T14:50:09;7.80;99.90
41630;DHT22;27322;49.488;8.480;2023-12-20T14:52:37;7.90;99.90
41630;DHT22;27322;49.488;8.480;2023-12-20T14:55:03;7.80;99.90
41630;DHT22;27322;49.488;8.480;2023-12-20T14:57:29;7.90;99.90
41630;DHT22;27322;49.488;8.480;2023-12-20T14:59:56;7.80;99.90
41630;DHT22;27322;49.488;8.480;2023-12-20T15:02:21;7.80;99.90
41630;DHT22;27322;49.488;8.480;2023-12-20T15:04:47;7.80;99.90
41630;DHT22;27322;49.488;8.480;2023-12-20T15:07:16;7.80;99.90
41630;DHT22;27322;49.488;8.480;2023-12-20T15:09:45;7.80;99.90
41630;DHT22;27322;49.488;8.480;2023-12-20T15:12:12;7.80;99.90
41630;DHT22;27322;49.488;8.480;2023-12-20T15:14:39;7.80;99.90
41630;DHT22;27322;49.488;8.480;2023-12-20T15:17:05;7.80;99.90
41630;DHT22;27322;49.488;8.480;2023-12-20T15:19:31;7.80;99.90
41630;DHT22;27322;49.488;8.480;2023-12-20T15:21:57;7.80;99.90
41630;DHT22;27322;49.488;8.480;2023-12-20T15:24:25;7.70;99.90
41630;DHT22;27322;49.488;8.480;2023-12-20T15:27:05;7.70;99.90
41630;DHT22;27322;49.488;8.480;2023-12-20T15:29:33;7.70;99.90
41630;DHT22;27322;49.488;8.480;2023-12-20T15:32:02;7.70;99.90
41630;DHT22;27322;49.488;8.480;2023-12-20T15:34:31;7.70;99.90
41630;DHT22;27322;49.488;8.480;2023-12-20T15:37:00;7.70;99.90
41630;DHT22;27322;49.488;8.480;2023-12-20T15:39:30;7.70;99.90
41630;DHT22;27322;49.488;8.480;2023-12-20T15:41:58;7.70;99.90
41630;DHT22;27322;49.488;8.480;2023-12-20T15:44:26;7.70;99.90
41630;DHT22;27322;49.488;8.480;2023-12-20T15:46:59;7.70;99.90
41630;DHT22;27322;49.488;8.480;2023-12-20T15:49:27;7.70;99.90
41630;DHT22;27322;49.488;8.480;2023-12-20T15:51:55;7.70;99.90
41630;DHT22;27322;49.488;8.480;2023-12-20T15:54:25;7.70;99.90
41630;DHT22;27322;49.488;8.480;2023-12-20T15:56:59;7.70;99.90
41630;DHT22;27322;49.488;8.480;2023-12-20T15:59:44;7.70;99.90
41630;DHT22;27322;49.488;8.480;2023-12-20T16:02:11;7.70;99.90
41630;DHT22;27322;49.488;8.480;2023-12-20T16:04:41;7.70;99.90
41630;DHT22;27322;49.488;8.480;2023-12-20T16:07:11;7.70;99.90
41630;DHT22;27322;49.488;8.480;2023-12-20T16:09:52;7.70;99.90
41630;DHT22;27322;49.488;8.480;2023-12-20T16:12:21;7.70;99.90
41630;DHT22;27322;49.488;8.480;2023-12-20T16:14:49;7.70;99.90
41630;DHT22;27322;49.488;8.480;2023-12-20T16:17:14;7.70;99.90
41630;DHT22;27322;49.488;8.480;2023-12-20T16:19:41;7.80;99.90
41630;DHT22;27322;49.488;8.480;2023-12-20T16:22:07;7.80;99.90
41630;DHT22;27322;49.488;8.480;2023-12-20T16:24:33;7.80;99.90
41630;DHT22;27322;49.488;8.480;2023-12-20T16:27:00;7.80;99.90
41630;DHT22;27322;49.488;8.480;2023-12-20T16:29:26;7.80;99.90
41630;DHT22;27322;49.488;8.480;2023-12-20T16:31:52;7.80;99.90
41630;DHT22;27322;49.488;8.480;2023-12-20T16:34:17;7.80;99.90
41630;DHT22;27322;49.488;8.480;2023-12-20T16:36:53;7.80;99.90
41630;DHT22;27322;49.488;8.480;2023-12-20T16:39:20;7.80;99.90
41630;DHT22;27322;49.488;8.480;2023-12-20T16:41:46;7.80;99.90
41630;DHT22;27322;49.488;8.480;2023-12-20T16:44:12;7.80;99.90
41630;DHT22;27322;49.488;8.480;2023-12-20T16:46:38;7.80;99.90
41630;DHT22;27322;49.488;8.480;2023-12-20T16:49:03;7.80;99.90
41630;DHT22;27322;49.488;8.480;2023-12-20T16:51:29;7.80;99.90
41630;DHT22;27322;49.488;8.480;2023-12-20T16:53:55;7.80;99.90
41630;DHT22;27322;49.488;8.480;2023-12-20T16:56:21;7.80;99.90
41630;DHT22;27322;49.488;8.480;2023-12-20T16:58:46;7.80;99.90
41630;DHT22;27322;49.488;8.480;2023-12-20T17:01:12;7.80;99.90
41630;DHT22;27322;49.488;8.480;2023-12-20T17:03:40;7.80;99.90
41630;DHT22;27322;49.488;8.480;2023-12-20T17:06:06;7.80;99.90
41630;DHT22;27322;49.488;8.480;2023-12-20T17:08:32;7.80;99.90
41630;DHT22;27322;49.488;8.480;2023-12-20T17:10:58;7.80;99.90
41630;DHT22;27322;49.488;8.480;2023-12-20T17:13:25;7.80;99.90
41630;DHT22;27322;49.488;8.480;2023-12-20T17:15:50;7.80;99.90
41630;DHT22;27322;49.488;8.480;2023-12-20T17:18:16;7.80;99.90
41630;DHT22;27322;49.488;8.480;2023-12-20T17:20:41;7.80;99.90
41630;DHT22;27322;49.488;8.480;2023-12-20T17:23:08;7.80;99.90
41630;DHT22;27322;49.488;8.480;2023-12-20T17:25:33;7.80;99.90
41630;DHT22;27322;49.488;8.480;2023-12-20T17:28:04;7.80;99.90
41630;DHT22;27322;49.488;8.480;2023-12-20T17:30:30;7.90;99.90
41630;DHT22;27322;49.488;8.480;2023-12-20T17:32:56;7.80;99.90
41630;DHT22;27322;49.488;8.480;2023-12-20T17:35:21;7.80;99.90
41630;DHT22;27322;49.488;8.480;2023-12-20T17:37:47;7.90;99.90
41630;DHT22;27322;49.488;8.480;2023-12-20T17:40:13;7.90;99.90
41630;DHT22;27322;49.488;8.480;2023-12-20T17:42:38;7.90;99.90
41630;DHT22;27322;49.488;8.480;2023-12-20T17:45:04;7.90;99.90
41630;DHT22;27322;49.488;8.480;2023-12-20T17:47:30;7.90;99.90